Hendersonville, NC (28739)

8:37 AM EDT on September 05, 2015 (GMT -0400)
big wllow | | Change Station
CLOSE
Current Station
Personal Weather Station
Location: Hendersonville, NC
Elevation: 2343 ft
Nearby Weather Stations

Elev 2343 ft 35.28 °N, 82.53 °W | Updated 36 seconds ago

Clear
Clear
62.9 °F
Feels Like 62.9 °F
N
0.0
Wind Variable Wind from NE
Gusts 0.0 mph

Today
High -- | Low -- °F
--% Chance of Precip.
Yesterday
High -- | Low -- °F
Precip. -- in
7:05 AM 7:51 PM
Waning Gibbous, 49% visible
Pressure 30.16 in
Visibility 6.0 miles
Clouds Few 200 ft
Dew Point 62 °F
Humidity 99%
Rainfall 0.00 in
Snow Depth Not available.
UV 0 out of 12
Pollen 8.20 out of 12
Air Quality Not available.
Flu Activity Not available.
METAR KAVL 051154Z 00000KT 6SM BR FEW002 17/16 A3022 RMK AO2 SLP211 70031 T01670156 10194 20167 53010
Pressure 30.16 in
Visibility 6.0 miles
Clouds Few 200 ft
Dew Point 62 °F
Humidity 99%
Rainfall 0.00 in
Snow Depth Not available.
UV 0 out of 12
Pollen 8.20 out of 12
Air Quality Not available.
Flu Activity Not available.
METAR KAVL 051154Z 00000KT 6SM BR FEW002 17/16 A3022 RMK AO2 SLP211 70031 T01670156 10194 20167 53010

10-Day Weather Forecast

×

Almanac

Astronomy

Sep. 05, 2015 Rise Set
Actual Time
Civil Twilight
Nautical Twilight
Astronomical Twilight
Moon
Length of Visible Light
Length of Day
Tomorrow will be .
, % of the Moon is Illuminated

Today's Extremes

State Highs State Lows

Community

WunderPhotos

Upload Photos

1,852,454 photos uploaded!

WunderBlogs® & News

Nearby

Air Quality

  Air Quality AQ Index Pollutant
Not available.

Snow Depth

Station Depth Elevation

Earthquake Activity

City Distance Mag. Time & Date
Minimum magnitude displayed is 2.5.

Coastal Water Temperatures

Place Temperature

Stations

Nearby Weather Stations

Station Location Temp. Windchill Dew Point Humidity Wind Precip. Elev Updated Type